createdAt,value
2023-02-22T00:00:19.969Z,4.45
2023-02-22T00:00:42.899Z,4.47
2023-02-22T00:00:56.297Z,4.54
2023-02-22T00:01:19.300Z,4.55
2023-02-22T00:01:50.794Z,4.52
2023-02-22T00:02:14.026Z,4.28
2023-02-22T00:02:27.156Z,4.26
2023-02-22T00:02:39.165Z,4.29
2023-02-22T00:02:52.744Z,4.33
2023-02-22T00:03:04.775Z,4.13
2023-02-22T00:03:18.245Z,4.07
2023-02-22T00:03:34.898Z,4.06
2023-02-22T00:03:51.932Z,4.14
2023-02-22T00:04:06.221Z,4.16
2023-02-22T00:04:21.069Z,4.12
2023-02-22T00:04:35.519Z,4.10
2023-02-22T00:04:47.400Z,4.14
2023-02-22T00:04:59.503Z,4.22
2023-02-22T00:05:11.789Z,4.18
2023-02-22T00:05:24.888Z,4.22
2023-02-22T00:05:39.229Z,4.20
2023-02-22T00:05:58.257Z,4.12
2023-02-22T00:06:17.316Z,4.14
2023-02-22T00:06:32.965Z,4.17
2023-02-22T00:06:46.056Z,4.11
2023-02-22T00:07:01.251Z,4.09
2023-02-22T00:07:14.868Z,3.99
2023-02-22T00:07:26.845Z,4.03
2023-02-22T00:07:38.732Z,4.02
2023-02-22T00:07:50.903Z,3.94
2023-02-22T00:08:02.809Z,3.99
2023-02-22T00:08:15.710Z,3.88
2023-02-22T00:08:30.499Z,3.85
2023-02-22T00:08:42.565Z,3.92
2023-02-22T00:08:55.682Z,3.94
2023-02-22T00:09:09.551Z,3.92
2023-02-22T00:09:21.630Z,3.88
2023-02-22T00:09:33.679Z,3.89
2023-02-22T00:09:45.637Z,3.95
2023-02-22T00:09:57.616Z,4.03
2023-02-22T00:10:13.294Z,4.07
2023-02-22T00:10:25.348Z,4.11
2023-02-22T00:10:40.509Z,4.10
2023-02-22T00:10:52.409Z,4.17
2023-02-22T00:11:09.899Z,4.25
2023-02-22T00:11:21.807Z,4.29
2023-02-22T00:11:35.445Z,4.35
2023-02-22T00:11:50.275Z,4.41
2023-02-22T00:12:04.314Z,4.44
2023-02-22T00:12:16.486Z,4.48
2023-02-22T00:12:29.191Z,4.49
2023-02-22T00:12:42.662Z,4.52
2023-02-22T00:12:55.517Z,4.54
2023-02-22T00:13:09.112Z,4.55
2023-02-22T00:13:22.973Z,4.57
2023-02-22T00:13:35.983Z,4.59
2023-02-22T00:13:50.358Z,4.61
2023-02-22T00:14:02.444Z,4.64
2023-02-22T00:14:14.412Z,4.65
2023-02-22T00:14:27.403Z,4.65
2023-02-22T00:14:40.294Z,4.66
2023-02-22T00:14:52.232Z,4.62
2023-02-22T00:15:05.625Z,4.58
2023-02-22T00:15:21.723Z,4.37
2023-02-22T00:15:34.735Z,4.42
2023-02-22T00:15:46.632Z,4.46
2023-02-22T00:16:00.272Z,4.51
2023-02-22T00:16:21.493Z,4.45
2023-02-22T00:16:33.644Z,4.50
2023-02-22T00:16:46.391Z,4.44
2023-02-22T00:16:59.601Z,4.44
2023-02-22T00:17:13.430Z,4.39
2023-02-22T00:17:25.333Z,4.31
2023-02-22T00:17:37.396Z,4.32
2023-02-22T00:17:49.465Z,4.31
2023-02-22T00:18:02.297Z,4.19
2023-02-22T00:18:16.694Z,4.16
2023-02-22T00:18:29.982Z,4.13
2023-02-22T00:18:42.335Z,4.22
2023-02-22T00:18:54.888Z,4.12
2023-02-22T00:19:07.586Z,4.13
2023-02-22T00:19:19.764Z,4.14
2023-02-22T00:19:31.857Z,4.11
2023-02-22T00:19:44.041Z,4.13
2023-02-22T00:19:56.043Z,4.12
2023-02-22T00:20:09.999Z,4.16
2023-02-22T00:20:23.376Z,4.20
2023-02-22T00:20:38.807Z,4.26
2023-02-22T00:20:51.310Z,4.26
2023-02-22T00:21:03.393Z,4.17
2023-02-22T00:21:16.840Z,4.19
2023-02-22T00:21:31.107Z,4.24
2023-02-22T00:21:44.894Z,4.25
2023-02-22T00:21:58.027Z,4.24
2023-02-22T00:22:09.996Z,4.18
2023-02-22T00:22:21.873Z,4.18
2023-02-22T00:22:34.466Z,4.16
2023-02-22T00:22:47.884Z,4.18
2023-02-22T00:23:01.387Z,4.24
2023-02-22T00:23:20.025Z,4.30
2023-02-22T00:23:32.082Z,4.36
2023-02-22T00:23:49.104Z,4.40
2023-02-22T00:24:07.238Z,4.47
2023-02-22T00:24:24.873Z,4.53
2023-02-22T00:24:36.782Z,4.56
2023-02-22T00:24:50.074Z,4.60
2023-02-22T00:25:02.059Z,4.64
2023-02-22T00:25:17.163Z,4.69
2023-02-22T00:25:29.202Z,4.72
2023-02-22T00:25:41.177Z,4.75
2023-02-22T00:25:53.099Z,4.76
2023-02-22T00:26:06.443Z,4.76
2023-02-22T00:26:21.538Z,4.80
2023-02-22T00:26:33.907Z,4.83
2023-02-22T00:26:47.203Z,4.87
2023-02-22T00:26:59.131Z,4.77
2023-02-22T00:27:11.511Z,4.79
2023-02-22T00:27:23.616Z,4.82
2023-02-22T00:27:36.592Z,4.80
2023-02-22T00:27:51.474Z,4.83
2023-02-22T00:28:04.950Z,4.84
2023-02-22T00:28:20.877Z,4.78
2023-02-22T00:28:32.875Z,4.75
2023-02-22T00:28:47.694Z,4.75
2023-02-22T00:28:59.719Z,4.73
2023-02-22T00:29:11.901Z,4.62
2023-02-22T00:29:24.511Z,4.67
2023-02-22T00:29:36.540Z,4.60
2023-02-22T00:29:48.435Z,4.58
2023-02-22T00:30:00.748Z,4.48
2023-02-22T00:30:20.804Z,4.49
2023-02-22T00:30:33.773Z,4.54
2023-02-22T00:30:46.177Z,4.58
2023-02-22T00:30:59.977Z,4.56
2023-02-22T00:31:12.048Z,4.54
2023-02-22T00:31:24.245Z,4.55
2023-02-22T00:31:39.397Z,4.54
2023-02-22T00:31:51.617Z,4.49
2023-02-22T00:32:06.558Z,4.47
2023-02-22T00:32:18.644Z,4.45
2023-02-22T00:32:30.835Z,4.47
2023-02-22T00:32:43.029Z,4.44
2023-02-22T00:32:56.731Z,4.35
2023-02-22T00:33:08.667Z,4.35
2023-02-22T00:33:20.616Z,4.30
2023-02-22T00:33:33.380Z,4.34
2023-02-22T00:33:45.454Z,4.33
2023-02-22T00:33:57.392Z,4.31
2023-02-22T00:34:09.382Z,4.26
2023-02-22T00:34:23.408Z,4.25
2023-02-22T00:34:35.295Z,4.28
2023-02-22T00:34:50.850Z,4.27
2023-02-22T00:35:08.173Z,4.23
2023-02-22T00:35:22.716Z,4.26
2023-02-22T00:35:34.769Z,4.29
2023-02-22T00:35:47.003Z,4.33
2023-02-22T00:35:59.941Z,4.37
2023-02-22T00:36:13.627Z,4.40
2023-02-22T00:36:25.585Z,4.45
2023-02-22T00:36:37.560Z,4.51
2023-02-22T00:36:49.788Z,4.54
2023-02-22T00:37:04.113Z,4.58
2023-02-22T00:37:16.060Z,4.62
2023-02-22T00:37:31.450Z,4.64
2023-02-22T00:37:46.813Z,4.70
2023-02-22T00:38:00.814Z,4.73
2023-02-22T00:38:15.574Z,4.75
2023-02-22T00:38:27.562Z,4.74
2023-02-22T00:38:42.497Z,4.76
2023-02-22T00:38:54.422Z,4.80
2023-02-22T00:39:07.736Z,4.83
2023-02-22T00:39:20.145Z,4.84
2023-02-22T00:39:32.229Z,4.86
2023-02-22T00:39:47.397Z,4.89
2023-02-22T00:39:59.377Z,4.91
2023-02-22T00:40:16.819Z,4.94
2023-02-22T00:40:32.468Z,4.99
2023-02-22T00:40:45.394Z,5.01
2023-02-22T00:40:57.359Z,5.00
2023-02-22T00:41:09.669Z,5.03
2023-02-22T00:41:21.695Z,4.97
2023-02-22T00:41:34.001Z,4.99
2023-02-22T00:41:46.106Z,4.99
2023-02-22T00:41:58.093Z,5.01
2023-02-22T00:42:12.915Z,5.03
2023-02-22T00:42:25.414Z,5.05
2023-02-22T00:42:37.942Z,5.06
2023-02-22T00:42:50.368Z,5.07
2023-02-22T00:43:04.177Z,5.10
2023-02-22T00:43:16.337Z,5.10
2023-02-22T00:43:28.300Z,5.11
2023-02-22T00:43:40.214Z,5.08
2023-02-22T00:43:52.149Z,5.10
2023-02-22T00:44:04.224Z,5.08
2023-02-22T00:44:16.390Z,5.11
2023-02-22T00:44:28.497Z,5.14
2023-02-22T00:44:40.557Z,5.14
2023-02-22T00:44:52.562Z,5.15
2023-02-22T00:45:05.544Z,5.18
2023-02-22T00:45:22.923Z,5.19
2023-02-22T00:45:36.706Z,5.19
2023-02-22T00:45:49.278Z,5.20
2023-02-22T00:46:01.436Z,5.17
2023-02-22T00:46:13.863Z,5.17
2023-02-22T00:46:25.907Z,5.17
2023-02-22T00:46:37.852Z,5.18
2023-02-22T00:46:49.953Z,5.18
2023-02-22T00:47:04.797Z,5.20
2023-02-22T00:47:16.901Z,5.24
2023-02-22T00:47:30.175Z,5.25
2023-02-22T00:47:42.344Z,5.24
2023-02-22T00:47:55.852Z,5.21
2023-02-22T00:48:08.647Z,5.18
2023-02-22T00:48:20.679Z,5.18
2023-02-22T00:48:32.704Z,5.18
2023-02-22T00:48:47.415Z,5.19
2023-02-22T00:48:59.500Z,5.19
2023-02-22T00:49:11.549Z,5.20
2023-02-22T00:49:23.455Z,5.20
2023-02-22T00:49:36.268Z,5.22
2023-02-22T00:49:48.452Z,5.21
2023-02-22T00:50:01.311Z,5.18
2023-02-22T00:50:13.674Z,5.17
2023-02-22T00:50:28.020Z,5.19
2023-02-22T00:50:40.160Z,5.19
2023-02-22T00:50:55.315Z,5.18
2023-02-22T00:51:07.337Z,5.14
2023-02-22T00:51:19.256Z,5.15
2023-02-22T00:51:31.207Z,5.11
2023-02-22T00:51:43.291Z,5.14
2023-02-22T00:51:55.184Z,5.09
2023-02-22T00:52:07.766Z,5.09
2023-02-22T00:52:19.682Z,5.09
2023-02-22T00:52:31.660Z,5.07
2023-02-22T00:52:44.368Z,5.11
2023-02-22T00:52:58.213Z,5.13
2023-02-22T00:53:11.310Z,5.11
2023-02-22T00:53:25.034Z,5.12
2023-02-22T00:53:37.112Z,5.15
2023-02-22T00:53:49.479Z,5.18
2023-02-22T00:54:01.471Z,5.22
2023-02-22T00:54:14.324Z,5.22
2023-02-22T00:54:26.389Z,5.25
2023-02-22T00:54:38.297Z,5.24
2023-02-22T00:54:50.286Z,5.25
2023-02-22T00:55:03.252Z,5.27
2023-02-22T00:55:17.917Z,5.26
2023-02-22T00:55:37.351Z,5.29
2023-02-22T00:55:49.718Z,5.28
2023-02-22T00:56:01.809Z,5.27
2023-02-22T00:56:14.030Z,5.28
2023-02-22T00:56:26.088Z,5.28
2023-02-22T00:56:38.138Z,5.28
2023-02-22T00:56:50.616Z,5.28
2023-02-22T00:57:03.584Z,5.25
2023-02-22T00:57:17.623Z,5.25
2023-02-22T00:57:30.507Z,5.26
2023-02-22T00:57:42.440Z,5.27
2023-02-22T00:57:55.569Z,5.25
2023-02-22T00:58:08.395Z,5.25
2023-02-22T00:58:21.230Z,5.22
2023-02-22T00:58:33.679Z,5.18
2023-02-22T00:58:45.627Z,5.20
2023-02-22T00:58:57.681Z,5.23
2023-02-22T00:59:09.586Z,5.24
2023-02-22T00:59:21.564Z,5.21
2023-02-22T00:59:33.507Z,5.24
2023-02-22T00:59:45.502Z,5.24
2023-02-22T00:59:57.486Z,5.21
2023-02-22T01:00:15.169Z,5.20
2023-02-22T01:00:41.636Z,5.18
2023-02-22T01:00:53.656Z,5.22
2023-02-22T01:01:05.649Z,5.20
2023-02-22T01:01:17.939Z,5.19
2023-02-22T01:01:31.079Z,5.18
2023-02-22T01:01:43.260Z,5.16
2023-02-22T01:01:55.497Z,5.17
2023-02-22T01:02:09.450Z,5.16
2023-02-22T01:02:21.515Z,5.15
2023-02-22T01:02:33.518Z,5.13
2023-02-22T01:02:46.238Z,5.12
2023-02-22T01:02:59.174Z,5.16
2023-02-22T01:03:14.761Z,5.16
2023-02-22T01:03:26.889Z,5.13
2023-02-22T01:03:41.337Z,5.10
2023-02-22T01:03:53.812Z,5.07
2023-02-22T01:04:06.762Z,5.07
2023-02-22T01:04:18.822Z,5.10
2023-02-22T01:04:31.028Z,5.09
2023-02-22T01:04:44.627Z,5.11
2023-02-22T01:04:56.761Z,5.09
2023-02-22T01:05:12.827Z,5.10
2023-02-22T01:05:27.385Z,5.12
2023-02-22T01:05:39.342Z,5.16
2023-02-22T01:05:51.530Z,5.15
2023-02-22T01:06:03.672Z,5.18
2023-02-22T01:06:15.681Z,5.20
2023-02-22T01:06:29.244Z,5.23
2023-02-22T01:06:41.337Z,5.23
2023-02-22T01:06:53.976Z,5.23
2023-02-22T01:07:06.488Z,5.25
2023-02-22T01:07:18.401Z,5.27
2023-02-22T01:07:30.436Z,5.26
2023-02-22T01:07:42.783Z,5.26
2023-02-22T01:07:56.486Z,5.27
2023-02-22T01:08:10.751Z,5.28
2023-02-22T01:08:25.105Z,5.27
2023-02-22T01:08:37.049Z,5.28
2023-02-22T01:08:49.455Z,5.28
2023-02-22T01:09:04.376Z,5.28
2023-02-22T01:09:16.412Z,5.29
2023-02-22T01:09:28.406Z,5.27
2023-02-22T01:09:41.534Z,5.26
2023-02-22T01:09:53.690Z,5.26
2023-02-22T01:10:08.619Z,5.28
2023-02-22T01:10:23.416Z,5.29
2023-02-22T01:10:36.655Z,5.30
2023-02-22T01:10:51.417Z,5.33
2023-02-22T01:11:03.378Z,5.35
2023-02-22T01:11:16.922Z,5.36
2023-02-22T01:11:29.452Z,5.38
2023-02-22T01:11:41.545Z,5.38
2023-02-22T01:11:57.605Z,5.38
2023-02-22T01:12:09.655Z,5.38
2023-02-22T01:12:22.839Z,5.40
2023-02-22T01:12:35.809Z,5.39
2023-02-22T01:12:48.384Z,5.40
2023-02-22T01:13:01.820Z,5.42
2023-02-22T01:13:14.149Z,5.39
2023-02-22T01:13:26.113Z,5.40
2023-02-22T01:13:38.463Z,5.39
2023-02-22T01:13:54.048Z,5.40
2023-02-22T01:14:09.618Z,5.37
2023-02-22T01:14:23.768Z,5.34
2023-02-22T01:14:35.648Z,5.34
2023-02-22T01:14:47.713Z,5.35
2023-02-22T01:14:59.663Z,5.37
2023-02-22T01:15:11.811Z,5.36
2023-02-22T01:15:25.619Z,5.38
2023-02-22T01:15:39.953Z,5.37
2023-02-22T01:15:51.873Z,5.38
2023-02-22T01:16:04.317Z,5.36
2023-02-22T01:16:16.235Z,5.35
2023-02-22T01:16:28.305Z,5.38
2023-02-22T01:16:40.571Z,5.37
2023-02-22T01:16:56.514Z,5.30
2023-02-22T01:17:08.489Z,5.31
2023-02-22T01:17:20.620Z,5.32
2023-02-22T01:17:32.555Z,5.33
2023-02-22T01:17:44.696Z,5.33
2023-02-22T01:17:58.314Z,5.34
2023-02-22T01:18:12.557Z,5.37
2023-02-22T01:18:25.926Z,5.37
2023-02-22T01:18:37.979Z,5.37
2023-02-22T01:18:49.940Z,5.37
2023-02-22T01:19:01.871Z,5.38
2023-02-22T01:19:13.845Z,5.39
2023-02-22T01:19:25.910Z,5.42
2023-02-22T01:19:37.915Z,5.44
2023-02-22T01:19:50.361Z,5.45
2023-02-22T01:20:10.453Z,5.45
2023-02-22T01:20:22.930Z,5.46
2023-02-22T01:20:35.781Z,5.47
2023-02-22T01:20:47.974Z,5.44
2023-02-22T01:21:01.633Z,5.36
2023-02-22T01:21:13.971Z,5.36
2023-02-22T01:21:26.129Z,5.36
2023-02-22T01:21:40.697Z,5.37
2023-02-22T01:21:52.641Z,5.38
2023-02-22T01:22:05.388Z,5.39
2023-02-22T01:22:17.552Z,5.40
2023-02-22T01:22:29.477Z,5.40
2023-02-22T01:22:43.680Z,5.39
2023-02-22T01:22:58.155Z,5.40
2023-02-22T01:23:10.495Z,5.39
2023-02-22T01:23:22.468Z,5.39
2023-02-22T01:23:34.367Z,5.36
2023-02-22T01:23:46.947Z,5.39
2023-02-22T01:23:58.854Z,5.37
2023-02-22T01:24:11.510Z,5.37
2023-02-22T01:24:23.503Z,5.38
2023-02-22T01:24:35.395Z,5.37
2023-02-22T01:24:51.452Z,5.35
2023-02-22T01:25:06.304Z,5.36
2023-02-22T01:25:21.602Z,5.39
2023-02-22T01:25:34.667Z,5.36
2023-02-22T01:25:46.791Z,5.37
2023-02-22T01:25:58.772Z,5.38
2023-02-22T01:26:10.833Z,5.39
2023-02-22T01:26:22.793Z,5.40
2023-02-22T01:26:34.885Z,5.40
2023-02-22T01:26:52.117Z,5.42
2023-02-22T01:27:04.177Z,5.43
2023-02-22T01:27:17.444Z,5.44
2023-02-22T01:27:29.367Z,5.41
2023-02-22T01:27:41.270Z,5.43
2023-02-22T01:27:53.791Z,5.44
2023-02-22T01:28:08.734Z,5.45
2023-02-22T01:28:22.421Z,5.46
2023-02-22T01:28:34.827Z,5.47
2023-02-22T01:28:46.749Z,5.48
2023-02-22T01:28:58.671Z,5.49
2023-02-22T01:29:17.199Z,5.49
2023-02-22T01:29:29.201Z,5.50
2023-02-22T01:29:41.263Z,5.50
2023-02-22T01:29:53.291Z,5.48
2023-02-22T01:30:08.710Z,5.48
2023-02-22T01:30:25.469Z,5.47
2023-02-22T01:30:37.724Z,5.45
2023-02-22T01:30:50.119Z,5.45
2023-02-22T01:31:02.940Z,5.43
2023-02-22T01:31:15.275Z,5.45
2023-02-22T01:31:27.575Z,5.48
2023-02-22T01:31:39.628Z,5.49
2023-02-22T01:31:54.519Z,5.50
2023-02-22T01:32:06.779Z,5.51
2023-02-22T01:32:18.741Z,5.51
2023-02-22T01:32:30.636Z,5.49
2023-02-22T01:32:42.736Z,5.51
2023-02-22T01:32:55.706Z,5.45
2023-02-22T01:33:08.599Z,5.47
2023-02-22T01:33:20.562Z,5.48
2023-02-22T01:33:33.815Z,5.50
2023-02-22T01:33:45.773Z,5.52
2023-02-22T01:33:57.959Z,5.52
2023-02-22T01:34:11.591Z,5.54
2023-02-22T01:34:25.386Z,5.54
2023-02-22T01:34:38.428Z,5.56
2023-02-22T01:34:53.719Z,5.59
2023-02-22T01:35:08.469Z,5.60
2023-02-22T01:35:23.611Z,5.58
2023-02-22T01:35:40.701Z,5.58
2023-02-22T01:35:52.934Z,5.59
2023-02-22T01:36:11.178Z,5.60
2023-02-22T01:36:23.193Z,5.63
2023-02-22T01:36:35.163Z,5.64
2023-02-22T01:36:47.244Z,5.63
2023-02-22T01:37:01.380Z,5.65
2023-02-22T01:37:13.427Z,5.66
2023-02-22T01:37:25.370Z,5.66
2023-02-22T01:37:37.590Z,5.68
2023-02-22T01:37:49.578Z,5.65
2023-02-22T01:38:01.978Z,5.66
2023-02-22T01:38:14.409Z,5.65
2023-02-22T01:38:26.454Z,5.68
2023-02-22T01:38:39.413Z,5.67
2023-02-22T01:38:51.437Z,5.64
2023-02-22T01:39:03.456Z,5.65
2023-02-22T01:39:17.838Z,5.66
2023-02-22T01:39:29.800Z,5.67
2023-02-22T01:39:41.701Z,5.67
2023-02-22T01:39:53.637Z,5.69
2023-02-22T01:40:09.237Z,5.72
2023-02-22T01:40:28.058Z,5.72
2023-02-22T01:40:42.685Z,5.72
2023-02-22T01:40:54.699Z,5.72
2023-02-22T01:41:06.846Z,5.74
2023-02-22T01:41:18.985Z,5.75
2023-02-22T01:41:31.009Z,5.76
2023-02-22T01:41:42.999Z,5.77
2023-02-22T01:41:55.217Z,5.78
2023-02-22T01:42:09.695Z,5.78
2023-02-22T01:42:21.638Z,5.80
2023-02-22T01:42:34.145Z,5.77
2023-02-22T01:42:50.958Z,5.77
2023-02-22T01:43:16.843Z,5.80
2023-02-22T01:43:31.824Z,5.79
2023-02-22T01:43:43.752Z,5.83
2023-02-22T01:43:55.648Z,5.84
2023-02-22T01:44:29.151Z,5.85
2023-02-22T01:44:41.498Z,5.83
2023-02-22T01:45:30.643Z,5.85
2023-02-22T01:46:03.981Z,5.86
2023-02-22T01:46:21.791Z,5.85
2023-02-22T01:46:34.137Z,5.82
2023-02-22T01:46:46.030Z,5.78
2023-02-22T01:47:00.499Z,5.83
2023-02-22T01:47:12.484Z,5.81
2023-02-22T01:47:24.357Z,5.84
2023-02-22T01:47:36.317Z,5.84
2023-02-22T01:47:48.308Z,5.84
2023-02-22T01:48:04.956Z,5.84
2023-02-22T01:48:38.604Z,5.86
2023-02-22T01:48:56.443Z,5.88
2023-02-22T01:49:10.265Z,5.90
2023-02-22T01:49:26.727Z,5.86
2023-02-22T01:49:44.397Z,5.88
2023-02-22T01:49:56.818Z,5.91
2023-02-22T01:50:10.593Z,5.92
2023-02-22T01:50:22.928Z,5.92
2023-02-22T01:50:40.928Z,5.95
2023-02-22T01:51:03.639Z,5.94
2023-02-22T01:51:18.004Z,5.96
2023-02-22T01:51:37.695Z,5.99
2023-02-22T01:51:52.847Z,5.95
2023-02-22T01:52:10.202Z,5.96
2023-02-22T01:52:22.993Z,5.98
2023-02-22T01:52:34.876Z,5.99
2023-02-22T01:52:47.102Z,5.99
2023-02-22T01:52:59.789Z,5.98
2023-02-22T01:53:15.749Z,5.99
2023-02-22T01:53:36.942Z,6.02
2023-02-22T01:53:58.781Z,6.04
2023-02-22T01:54:18.367Z,6.03
2023-02-22T01:54:37.568Z,6.07
2023-02-22T01:54:55.642Z,6.05
2023-02-22T01:55:07.632Z,6.06
2023-02-22T01:55:19.809Z,6.07
2023-02-22T01:55:34.370Z,6.08
2023-02-22T01:55:47.939Z,6.09
2023-02-22T01:56:00.450Z,6.08
2023-02-22T01:56:13.898Z,6.08
2023-02-22T01:56:29.138Z,6.09
2023-02-22T01:56:54.008Z,6.11
2023-02-22T01:57:22.506Z,6.12
2023-02-22T01:57:37.225Z,6.13
2023-02-22T01:57:49.624Z,6.12
2023-02-22T01:58:03.685Z,6.13
2023-02-22T01:58:18.516Z,6.11
2023-02-22T01:58:34.650Z,6.11
2023-02-22T01:58:50.908Z,6.11
2023-02-22T01:59:08.024Z,6.11
2023-02-22T01:59:21.971Z,6.12
2023-02-22T01:59:37.561Z,6.13
2023-02-22T01:59:53.146Z,6.14
2023-02-22T02:00:10.183Z,6.15
2023-02-22T02:00:24.336Z,6.14
2023-02-22T02:00:36.825Z,6.16
2023-02-22T02:00:48.749Z,6.15
2023-02-22T02:01:01.180Z,6.15
2023-02-22T02:01:14.551Z,6.16
2023-02-22T02:01:28.191Z,6.15
2023-02-22T02:01:43.532Z,6.16
2023-02-22T02:01:55.859Z,6.14
2023-02-22T02:02:07.880Z,6.17
2023-02-22T02:02:21.666Z,6.16
2023-02-22T02:02:33.705Z,6.16
2023-02-22T02:02:51.239Z,6.17
2023-02-22T02:03:11.562Z,6.17
2023-02-22T02:03:29.534Z,6.17
2023-02-22T02:03:42.336Z,6.17
2023-02-22T02:03:58.236Z,6.17
2023-02-22T02:04:16.296Z,6.17
2023-02-22T02:04:28.488Z,6.17
2023-02-22T02:04:43.067Z,6.17
2023-02-22T02:04:57.332Z,6.17
2023-02-22T02:05:10.236Z,6.15
2023-02-22T02:05:24.750Z,6.06
2023-02-22T02:05:37.821Z,6.06
2023-02-22T02:05:52.972Z,6.06
2023-02-22T02:06:08.109Z,6.09
2023-02-22T02:06:20.845Z,6.09
2023-02-22T02:06:34.944Z,6.06
2023-02-22T02:06:47.881Z,6.02
2023-02-22T02:07:04.050Z,6.05
2023-02-22T02:07:19.041Z,6.05
2023-02-22T02:07:30.966Z,6.04
2023-02-22T02:07:46.377Z,5.95
2023-02-22T02:08:03.531Z,5.98
2023-02-22T02:08:36.802Z,6.00
2023-02-22T02:09:00.621Z,6.01
2023-02-22T02:09:29.045Z,5.98
2023-02-22T02:09:58.655Z,5.99
2023-02-22T02:10:14.364Z,5.99
2023-02-22T02:10:26.556Z,5.90
2023-02-22T02:10:39.428Z,5.93
2023-02-22T02:10:53.366Z,5.91
2023-02-22T02:11:14.005Z,5.77
2023-02-22T02:11:27.616Z,5.80
2023-02-22T02:11:41.578Z,5.83
2023-02-22T02:11:53.928Z,5.86
2023-02-22T02:12:09.823Z,5.87
2023-02-22T02:12:23.354Z,5.89
2023-02-22T02:12:36.206Z,5.91
2023-02-22T02:12:50.889Z,5.93
2023-02-22T02:13:03.972Z,5.89
2023-02-22T02:13:16.292Z,5.93
2023-02-22T02:13:28.460Z,5.93
2023-02-22T02:13:40.420Z,5.93
2023-02-22T02:13:55.268Z,5.93
2023-02-22T02:14:09.145Z,5.90
2023-02-22T02:14:21.434Z,5.90
2023-02-22T02:14:33.961Z,5.91
2023-02-22T02:14:45.933Z,5.84
2023-02-22T02:15:19.259Z,5.87
2023-02-22T02:15:33.196Z,5.88
2023-02-22T02:15:45.828Z,5.78
2023-02-22T02:15:57.845Z,5.76
2023-02-22T02:16:09.856Z,5.82
2023-02-22T02:16:24.570Z,5.69
2023-02-22T02:16:46.335Z,5.75
2023-02-22T02:17:03.863Z,5.59
2023-02-22T02:17:19.621Z,5.64
2023-02-22T02:17:31.684Z,5.65
2023-02-22T02:17:44.132Z,5.67
2023-02-22T02:18:00.932Z,5.65
2023-02-22T02:18:13.635Z,5.67
2023-02-22T02:18:27.785Z,5.69
2023-02-22T02:18:40.288Z,5.70
2023-02-22T02:18:52.326Z,5.66
2023-02-22T02:19:11.292Z,5.63
2023-02-22T02:19:23.240Z,5.54
2023-02-22T02:20:11.798Z,5.60
2023-02-22T02:20:36.417Z,5.65
2023-02-22T02:20:55.051Z,5.63
2023-02-22T02:21:25.257Z,5.66
2023-02-22T02:22:04.277Z,5.65
2023-02-22T02:22:38.330Z,5.69
2023-02-22T02:23:00.919Z,5.73
2023-02-22T02:23:43.970Z,5.59
2023-02-22T02:24:10.791Z,5.66
2023-02-22T02:24:50.276Z,5.73
2023-02-22T02:25:22.416Z,5.79
2023-02-22T02:26:09.195Z,5.83
2023-02-22T02:26:42.698Z,5.86
2023-02-22T02:27:12.598Z,5.66
2023-02-22T02:27:32.241Z,5.69
2023-02-22T02:28:18.245Z,5.78
2023-02-22T02:28:40.064Z,5.81
2023-02-22T02:29:02.871Z,5.79
2023-02-22T02:29:35.259Z,5.71
2023-02-22T02:30:12.161Z,5.66
2023-02-22T02:30:54.359Z,5.73
2023-02-22T02:31:45.254Z,5.76
2023-02-22T02:32:03.217Z,5.78
2023-02-22T02:32:58.617Z,5.80
2023-02-22T02:33:57.016Z,5.89
2023-02-22T02:34:27.984Z,5.94
2023-02-22T02:34:50.907Z,5.92
2023-02-22T02:35:14.667Z,5.91
2023-02-22T02:35:41.121Z,5.86
2023-02-22T02:36:01.469Z,5.87
2023-02-22T02:36:22.637Z,5.88
2023-02-22T02:36:37.923Z,5.92
2023-02-22T02:36:55.322Z,5.90
2023-02-22T02:37:19.010Z,5.85
2023-02-22T02:37:45.694Z,5.88
2023-02-22T02:38:17.041Z,5.91
2023-02-22T02:38:31.685Z,5.92
2023-02-22T02:38:59.201Z,5.87
2023-02-22T02:39:36.637Z,5.67
2023-02-22T02:40:12.901Z,5.76
2023-02-22T02:40:30.703Z,5.76
2023-02-22T02:40:53.920Z,5.80
2023-02-22T02:41:12.072Z,5.81
2023-02-22T02:41:39.859Z,5.74
2023-02-22T02:41:52.525Z,5.76
2023-02-22T02:42:11.053Z,5.76
2023-02-22T02:42:29.815Z,5.78
2023-02-22T02:43:04.059Z,5.82
2023-02-22T02:43:32.155Z,5.86
2023-02-22T02:43:50.158Z,5.76
2023-02-22T02:44:04.745Z,5.70
2023-02-22T02:44:36.093Z,5.78
2023-02-22T02:44:57.537Z,5.80
2023-02-22T02:45:18.532Z,5.82
2023-02-22T02:45:40.841Z,5.77
2023-02-22T02:46:12.109Z,5.58
2023-02-22T02:46:32.182Z,5.66
2023-02-22T02:46:50.964Z,5.62
2023-02-22T02:47:17.958Z,5.38
2023-02-22T02:47:39.092Z,5.30
2023-02-22T02:47:58.662Z,5.45
2023-02-22T02:48:13.863Z,5.45
2023-02-22T02:48:28.305Z,5.46
2023-02-22T02:48:47.951Z,5.38
2023-02-22T02:49:51.199Z,5.37
2023-02-22T02:50:11.407Z,5.44
2023-02-22T02:50:29.025Z,5.40
2023-02-22T02:50:46.763Z,5.34
2023-02-22T02:51:01.385Z,5.37
2023-02-22T02:51:15.264Z,5.36
2023-02-22T02:51:36.579Z,5.46
2023-02-22T02:51:53.820Z,5.42
2023-02-22T02:52:07.492Z,5.41
2023-02-22T02:52:23.171Z,5.42
2023-02-22T02:52:37.192Z,5.43
2023-02-22T02:52:51.285Z,5.39
2023-02-22T02:53:07.914Z,5.34
2023-02-22T02:53:27.415Z,5.29
2023-02-22T02:53:42.781Z,5.33
2023-02-22T02:53:55.791Z,5.33
2023-02-22T02:54:09.174Z,5.36
2023-02-22T02:54:22.325Z,5.40
2023-02-22T02:54:38.101Z,5.45
2023-02-22T02:54:51.241Z,5.47
2023-02-22T02:55:06.492Z,5.50
2023-02-22T02:55:18.862Z,5.52
2023-02-22T02:55:32.762Z,5.55
2023-02-22T02:55:44.721Z,5.55
2023-02-22T02:55:59.483Z,5.59
2023-02-22T02:56:11.700Z,5.59
2023-02-22T02:56:24.222Z,5.59
2023-02-22T02:56:36.149Z,5.58
2023-02-22T02:56:48.303Z,5.55
2023-02-22T02:57:00.196Z,5.54
2023-02-22T02:57:12.893Z,5.49
2023-02-22T02:57:24.886Z,5.52
2023-02-22T02:57:38.861Z,5.48
2023-02-22T02:57:50.993Z,5.52
2023-02-22T02:58:07.517Z,5.48
2023-02-22T02:58:23.478Z,5.50
2023-02-22T02:58:49.155Z,5.49
2023-02-22T02:59:01.185Z,5.40
2023-02-22T02:59:25.366Z,5.45
2023-02-22T02:59:38.317Z,5.46
2023-02-22T02:59:51.466Z,5.42
2023-02-22T03:00:09.239Z,5.48
2023-02-22T03:00:26.462Z,5.43
2023-02-22T03:00:41.994Z,5.47
2023-02-22T03:00:57.083Z,5.50
2023-02-22T03:01:11.346Z,5.54
2023-02-22T03:01:42.134Z,5.58
2023-02-22T03:02:02.279Z,5.62
2023-02-22T03:02:41.208Z,5.55
2023-02-22T03:03:11.070Z,5.55
2023-02-22T03:03:47.715Z,5.50
2023-02-22T03:04:16.926Z,5.46
2023-02-22T03:04:54.113Z,5.50
2023-02-22T03:05:31.827Z,5.33
2023-02-22T03:06:11.347Z,5.33
2023-02-22T03:06:48.951Z,5.39
2023-02-22T03:07:16.478Z,5.15
2023-02-22T03:07:50.048Z,5.31
2023-02-22T03:08:16.150Z,5.23
2023-02-22T03:08:40.979Z,5.29
2023-02-22T03:09:03.681Z,5.34
2023-02-22T03:09:50.982Z,5.33
2023-02-22T03:10:13.117Z,5.35
2023-02-22T03:10:50.353Z,5.05
2023-02-22T03:11:17.435Z,5.22
2023-02-22T03:11:36.293Z,5.12
2023-02-22T03:12:03.230Z,5.22
2023-02-22T03:12:42.070Z,5.16
2023-02-22T03:13:08.984Z,5.23
2023-02-22T03:13:26.380Z,5.22
2023-02-22T03:14:09.129Z,5.17
2023-02-22T03:14:50.681Z,5.16
2023-02-22T03:15:14.666Z,5.14
2023-02-22T03:15:29.706Z,5.10
2023-02-22T03:16:15.214Z,5.12
2023-02-22T03:16:44.739Z,5.16
2023-02-22T03:17:02.358Z,5.09
2023-02-22T03:17:26.344Z,4.95
2023-02-22T03:18:03.977Z,4.70
2023-02-22T03:18:25.105Z,4.63
2023-02-22T03:18:57.277Z,4.48
2023-02-22T03:19:17.779Z,4.39
2023-02-22T03:19:44.072Z,4.44
2023-02-22T03:20:12.442Z,4.52
2023-02-22T03:20:31.585Z,4.54
2023-02-22T03:21:02.146Z,4.55
2023-02-22T03:21:40.647Z,4.66
2023-02-22T03:22:02.101Z,4.64
2023-02-22T03:22:24.781Z,4.65
2023-02-22T03:22:48.030Z,4.46
2023-02-22T03:23:29.142Z,4.63
2023-02-22T03:23:46.900Z,4.70
2023-02-22T03:24:24.878Z,4.67
2023-02-22T03:24:52.890Z,4.71
2023-02-22T03:25:08.956Z,4.75
2023-02-22T03:25:28.916Z,4.76
2023-02-22T03:25:47.174Z,4.72
2023-02-22T03:26:07.609Z,4.67
2023-02-22T03:26:25.242Z,4.69
2023-02-22T03:26:45.170Z,4.78
2023-02-22T03:27:03.045Z,4.80
2023-02-22T03:27:44.555Z,4.85
2023-02-22T03:28:02.377Z,4.84
2023-02-22T03:28:18.614Z,4.88
2023-02-22T03:28:32.796Z,4.92
2023-02-22T03:28:48.377Z,4.96
2023-02-22T03:29:05.074Z,4.99
2023-02-22T03:29:20.710Z,5.06
2023-02-22T03:29:35.449Z,5.07
2023-02-22T03:29:51.026Z,5.06
2023-02-22T03:30:09.144Z,4.79
2023-02-22T03:30:32.118Z,4.61
2023-02-22T03:31:01.989Z,4.45
2023-02-22T03:31:20.081Z,4.55
2023-02-22T03:31:37.998Z,4.61
2023-02-22T03:32:01.209Z,4.65
2023-02-22T03:32:22.652Z,4.68
2023-02-22T03:32:38.353Z,4.63
2023-02-22T03:32:57.403Z,4.65
2023-02-22T03:33:20.340Z,4.63
2023-02-22T03:33:45.608Z,4.59
2023-02-22T03:34:02.543Z,4.52
2023-02-22T03:34:22.965Z,4.51
2023-02-22T03:34:42.489Z,4.48
2023-02-22T03:35:01.285Z,4.39
2023-02-22T03:35:21.723Z,4.45
2023-02-22T03:35:37.395Z,4.45
2023-02-22T03:35:56.879Z,4.44
2023-02-22T03:36:30.412Z,4.37
2023-02-22T03:36:50.135Z,4.22
2023-02-22T03:37:14.042Z,4.17
2023-02-22T03:37:31.629Z,4.24
2023-02-22T03:37:46.667Z,4.27